首页
METAR-TAF:

METAR-TAF

机场 :

巴林国际机场

巴林, 巴林

纬度: 26-16N, 经度: 050-39E, 海拔: 2米

当前天气观测

该预报发布于18分钟前的02:00 UTC
风速15节,风向西北
温度 32°C
湿度 59%
气压 1001 hPa
能見度: 3500
天空无云
浮尘

METAR: OBBI 230200Z 32015KT 3500 DU SKC 32/23 Q1001 BECMG 5000

时间: 05:18 (02:18 UTC)

预报

该预报发布于2小时和14分钟前的00:04 UTC
预报有效从23日的 00点(UTC)到 24日的 06点(UTC)
风速15节,风向西转西北
能见度10公里或以上
1500米以下无云,无积雨云
短暂存在
从 23日的 00点(UTC)到 23日的 05点(UTC)
能見度: 5000
浮尘
几率 30% :
短暂存在
从 23日的 00点(UTC)到 23日的 03点(UTC)
能見度: 2000
成为
从 23日的 03点(UTC)到 23日的 05点(UTC)
风速17节,风向北转西北,有时为27节阵风
成为
从 23日的 15点(UTC)到 23日的 17点(UTC)
风速12节,风向西北

TAF: OBBI 230004Z 2300/2406 30015KT CAVOK TEMPO 2300/2305 5000 DU NSC PROB30 TEMPO 2300/2303 2000 BECMG 2303/2305 33017G27KT BECMG 2315/2317 31012KT

超过4000个机场的气象观测和天气预报(METAR&TAF报告)。

可查询的气象台以黄色和红色小点在地图上表示。

将鼠标移到小点上方,可查看气象台名称。

然后点击查看天气观测和预报。

如需切换地图:点击带黑十字的绿色按钮放大地图;点击带横线的绿色按钮缩小地图;或者点击绿色箭头查看邻近地区的地图。


METAR-TAF: